METAR Formatted Surface Weather Observation
Issued by NWS

Home | Current Version | Previous Version | Text Only | Print | Product List | Glossary On
Versions: 1 2 3 4
000
SAUS41 KLWX 262121 COR
MTRRSP
METAR KRSP 262054Z AUTO VRB04KT 10SM SCT065 29/21 A3013 RMK AO2
SLP999 T02940206 56005 $



USA.gov is the U.S. government's official web portal to all federal, state and local government web resources and services.